sensor_id;sensor_type;location;lat;lon;timestamp;P1;durP1;ratioP1;P2;durP2;ratioP2
69588;SDS011;56792;50.644;17.984;2022-10-30T00:00:39;29.90;;;15.40;;
69588;SDS011;56792;50.644;17.984;2022-10-30T00:03:13;31.40;;;16.50;;
69588;SDS011;56792;50.644;17.984;2022-10-30T00:05:47;29.80;;;15.80;;
69588;SDS011;56792;50.644;17.984;2022-10-30T00:08:21;28.50;;;15.60;;
69588;SDS011;56792;50.644;17.984;2022-10-30T00:10:54;23.80;;;14.20;;
69588;SDS011;56792;50.644;17.984;2022-10-30T00:13:26;29.40;;;14.50;;
69588;SDS011;56792;50.644;17.984;2022-10-30T00:15:58;24.90;;;14.00;;
69588;SDS011;56792;50.644;17.984;2022-10-30T00:18:32;26.90;;;13.70;;
69588;SDS011;56792;50.644;17.984;2022-10-30T00:21:10;25.40;;;13.70;;
69588;SDS011;56792;50.644;17.984;2022-10-30T00:23:48;27.10;;;14.00;;
69588;SDS011;56792;50.644;17.984;2022-10-30T00:26:22;26.90;;;15.80;;
69588;SDS011;56792;50.644;17.984;2022-10-30T00:28:56;27.80;;;14.50;;
69588;SDS011;56792;50.644;17.984;2022-10-30T00:31:28;27.10;;;14.30;;
69588;SDS011;56792;50.644;17.984;2022-10-30T00:34:00;24.80;;;14.40;;
69588;SDS011;56792;50.644;17.984;2022-10-30T00:36:32;24.50;;;13.90;;
69588;SDS011;56792;50.644;17.984;2022-10-30T00:39:04;26.60;;;14.20;;
69588;SDS011;56792;50.644;17.984;2022-10-30T00:41:37;24.90;;;15.50;;
69588;SDS011;56792;50.644;17.984;2022-10-30T00:44:32;30.80;;;15.40;;
69588;SDS011;56792;50.644;17.984;2022-10-30T00:47:12;28.70;;;14.80;;
69588;SDS011;56792;50.644;17.984;2022-10-30T00:49:56;32.50;;;16.40;;
69588;SDS011;56792;50.644;17.984;2022-10-30T00:52:32;43.50;;;21.90;;
69588;SDS011;56792;50.644;17.984;2022-10-30T00:55:10;45.40;;;22.40;;
69588;SDS011;56792;50.644;17.984;2022-10-30T00:57:46;40.90;;;20.90;;
69588;SDS011;56792;50.644;17.984;2022-10-30T01:00:23;40.50;;;21.20;;
69588;SDS011;56792;50.644;17.984;2022-10-30T01:03:02;50.00;;;24.40;;
69588;SDS011;56792;50.644;17.984;2022-10-30T01:05:39;46.40;;;23.40;;
69588;SDS011;56792;50.644;17.984;2022-10-30T01:08:11;44.30;;;23.30;;
69588;SDS011;56792;50.644;17.984;2022-10-30T01:10:43;42.50;;;21.00;;
69588;SDS011;56792;50.644;17.984;2022-10-30T01:13:18;42.90;;;21.90;;
69588;SDS011;56792;50.644;17.984;2022-10-30T01:16:06;41.20;;;20.90;;
69588;SDS011;56792;50.644;17.984;2022-10-30T01:18:54;41.50;;;20.30;;
69588;SDS011;56792;50.644;17.984;2022-10-30T01:21:46;37.30;;;17.40;;
69588;SDS011;56792;50.644;17.984;2022-10-30T01:24:40;31.50;;;17.00;;
69588;SDS011;56792;50.644;17.984;2022-10-30T01:27:37;33.20;;;17.50;;
69588;SDS011;56792;50.644;17.984;2022-10-30T01:30:25;28.70;;;15.30;;
69588;SDS011;56792;50.644;17.984;2022-10-30T01:33:15;28.50;;;15.30;;
69588;SDS011;56792;50.644;17.984;2022-10-30T01:36:00;31.90;;;15.50;;
69588;SDS011;56792;50.644;17.984;2022-10-30T01:38:41;28.70;;;15.10;;
69588;SDS011;56792;50.644;17.984;2022-10-30T01:41:17;25.10;;;12.70;;
69588;SDS011;56792;50.644;17.984;2022-10-30T01:43:51;23.70;;;12.20;;
69588;SDS011;56792;50.644;17.984;2022-10-30T01:46:47;26.40;;;13.20;;
69588;SDS011;56792;50.644;17.984;2022-10-30T01:50:01;23.50;;;12.00;;
69588;SDS011;56792;50.644;17.984;2022-10-30T01:52:48;22.80;;;10.90;;
69588;SDS011;56792;50.644;17.984;2022-10-30T01:55:34;22.10;;;10.70;;
69588;SDS011;56792;50.644;17.984;2022-10-30T01:58:19;18.00;;;10.00;;
69588;SDS011;56792;50.644;17.984;2022-10-30T02:00:59;21.40;;;10.00;;
69588;SDS011;56792;50.644;17.984;2022-10-30T02:03:31;17.40;;;10.20;;
69588;SDS011;56792;50.644;17.984;2022-10-30T02:06:04;19.00;;;10.80;;
69588;SDS011;56792;50.644;17.984;2022-10-30T02:08:36;19.50;;;10.00;;
69588;SDS011;56792;50.644;17.984;2022-10-30T02:11:10;19.80;;;10.80;;
69588;SDS011;56792;50.644;17.984;2022-10-30T02:13:43;20.70;;;11.30;;
69588;SDS011;56792;50.644;17.984;2022-10-30T02:16:15;17.50;;;9.90;;
69588;SDS011;56792;50.644;17.984;2022-10-30T02:18:47;19.00;;;10.10;;
69588;SDS011;56792;50.644;17.984;2022-10-30T02:21:19;20.20;;;10.30;;
69588;SDS011;56792;50.644;17.984;2022-10-30T02:23:51;22.40;;;10.70;;
69588;SDS011;56792;50.644;17.984;2022-10-30T02:26:23;21.30;;;10.30;;
69588;SDS011;56792;50.644;17.984;2022-10-30T02:28:55;19.80;;;9.80;;
69588;SDS011;56792;50.644;17.984;2022-10-30T02:31:27;21.90;;;10.10;;
69588;SDS011;56792;50.644;17.984;2022-10-30T02:33:59;21.60;;;9.90;;
69588;SDS011;56792;50.644;17.984;2022-10-30T02:36:31;18.70;;;10.10;;
69588;SDS011;56792;50.644;17.984;2022-10-30T02:39:03;19.90;;;11.20;;
69588;SDS011;56792;50.644;17.984;2022-10-30T02:41:36;23.20;;;11.50;;
69588;SDS011;56792;50.644;17.984;2022-10-30T02:44:08;21.80;;;10.70;;
69588;SDS011;56792;50.644;17.984;2022-10-30T02:46:40;22.10;;;11.10;;
69588;SDS011;56792;50.644;17.984;2022-10-30T02:49:12;26.20;;;12.30;;
69588;SDS011;56792;50.644;17.984;2022-10-30T02:51:44;25.30;;;11.90;;
69588;SDS011;56792;50.644;17.984;2022-10-30T02:54:16;20.80;;;11.10;;
69588;SDS011;56792;50.644;17.984;2022-10-30T02:56:49;21.90;;;11.20;;
69588;SDS011;56792;50.644;17.984;2022-10-30T02:59:23;20.50;;;11.10;;
69588;SDS011;56792;50.644;17.984;2022-10-30T03:01:55;19.40;;;10.40;;
69588;SDS011;56792;50.644;17.984;2022-10-30T03:04:27;21.90;;;10.30;;
69588;SDS011;56792;50.644;17.984;2022-10-30T03:06:59;19.10;;;10.20;;
69588;SDS011;56792;50.644;17.984;2022-10-30T03:09:31;28.30;;;12.60;;
69588;SDS011;56792;50.644;17.984;2022-10-30T03:12:04;19.40;;;12.00;;
69588;SDS011;56792;50.644;17.984;2022-10-30T03:14:36;23.80;;;13.50;;
69588;SDS011;56792;50.644;17.984;2022-10-30T03:17:08;25.30;;;13.90;;
69588;SDS011;56792;50.644;17.984;2022-10-30T03:19:41;19.80;;;12.30;;
69588;SDS011;56792;50.644;17.984;2022-10-30T03:22:13;24.00;;;12.10;;
69588;SDS011;56792;50.644;17.984;2022-10-30T03:24:45;26.60;;;12.00;;
69588;SDS011;56792;50.644;17.984;2022-10-30T03:27:18;22.00;;;11.90;;
69588;SDS011;56792;50.644;17.984;2022-10-30T03:29:52;26.00;;;14.10;;
69588;SDS011;56792;50.644;17.984;2022-10-30T03:32:27;27.10;;;13.70;;
69588;SDS011;56792;50.644;17.984;2022-10-30T03:34:59;27.10;;;14.10;;
69588;SDS011;56792;50.644;17.984;2022-10-30T03:37:31;30.90;;;14.40;;
69588;SDS011;56792;50.644;17.984;2022-10-30T03:40:03;30.30;;;14.30;;
69588;SDS011;56792;50.644;17.984;2022-10-30T03:42:40;26.80;;;14.50;;
69588;SDS011;56792;50.644;17.984;2022-10-30T03:45:12;31.10;;;15.20;;
69588;SDS011;56792;50.644;17.984;2022-10-30T03:47:44;33.20;;;16.00;;
69588;SDS011;56792;50.644;17.984;2022-10-30T03:50:16;34.40;;;16.60;;
69588;SDS011;56792;50.644;17.984;2022-10-30T03:52:48;31.80;;;15.30;;
69588;SDS011;56792;50.644;17.984;2022-10-30T03:55:22;33.30;;;16.60;;
69588;SDS011;56792;50.644;17.984;2022-10-30T03:57:55;28.90;;;16.50;;
69588;SDS011;56792;50.644;17.984;2022-10-30T04:00:27;34.10;;;16.00;;
69588;SDS011;56792;50.644;17.984;2022-10-30T04:02:59;29.10;;;15.80;;
69588;SDS011;56792;50.644;17.984;2022-10-30T04:05:35;32.00;;;16.10;;
69588;SDS011;56792;50.644;17.984;2022-10-30T04:08:12;30.70;;;15.00;;
69588;SDS011;56792;50.644;17.984;2022-10-30T04:10:45;33.50;;;17.10;;
69588;SDS011;56792;50.644;17.984;2022-10-30T04:13:18;31.50;;;16.80;;
69588;SDS011;56792;50.644;17.984;2022-10-30T04:15:53;32.70;;;17.10;;
69588;SDS011;56792;50.644;17.984;2022-10-30T04:18:25;33.30;;;16.70;;
69588;SDS011;56792;50.644;17.984;2022-10-30T04:20:59;33.40;;;17.10;;
69588;SDS011;56792;50.644;17.984;2022-10-30T04:23:31;32.90;;;16.50;;
69588;SDS011;56792;50.644;17.984;2022-10-30T04:26:03;34.90;;;16.90;;
69588;SDS011;56792;50.644;17.984;2022-10-30T04:28:37;29.30;;;15.80;;
69588;SDS011;56792;50.644;17.984;2022-10-30T04:31:09;25.20;;;14.20;;
69588;SDS011;56792;50.644;17.984;2022-10-30T04:33:41;28.10;;;15.40;;
69588;SDS011;56792;50.644;17.984;2022-10-30T04:36:13;27.20;;;15.10;;
69588;SDS011;56792;50.644;17.984;2022-10-30T04:38:47;27.70;;;14.50;;
69588;SDS011;56792;50.644;17.984;2022-10-30T04:41:20;30.70;;;14.40;;
69588;SDS011;56792;50.644;17.984;2022-10-30T04:44:00;29.00;;;14.00;;
69588;SDS011;56792;50.644;17.984;2022-10-30T04:46:33;25.90;;;13.70;;
69588;SDS011;56792;50.644;17.984;2022-10-30T04:49:10;28.40;;;14.30;;
69588;SDS011;56792;50.644;17.984;2022-10-30T04:51:42;25.30;;;13.40;;
69588;SDS011;56792;50.644;17.984;2022-10-30T04:54:15;26.00;;;13.20;;
69588;SDS011;56792;50.644;17.984;2022-10-30T04:56:48;24.80;;;13.20;;
69588;SDS011;56792;50.644;17.984;2022-10-30T04:59:20;27.00;;;13.70;;
69588;SDS011;56792;50.644;17.984;2022-10-30T05:01:53;24.40;;;13.10;;
69588;SDS011;56792;50.644;17.984;2022-10-30T05:04:25;23.70;;;13.20;;
69588;SDS011;56792;50.644;17.984;2022-10-30T05:06:57;27.70;;;12.90;;
69588;SDS011;56792;50.644;17.984;2022-10-30T05:09:30;23.60;;;12.70;;
69588;SDS011;56792;50.644;17.984;2022-10-30T05:12:02;25.50;;;12.80;;
69588;SDS011;56792;50.644;17.984;2022-10-30T05:14:39;25.20;;;12.40;;
69588;SDS011;56792;50.644;17.984;2022-10-30T05:17:11;28.80;;;12.70;;
69588;SDS011;56792;50.644;17.984;2022-10-30T05:19:44;25.40;;;13.20;;
69588;SDS011;56792;50.644;17.984;2022-10-30T05:22:16;23.90;;;12.60;;
69588;SDS011;56792;50.644;17.984;2022-10-30T05:24:48;22.90;;;12.20;;
69588;SDS011;56792;50.644;17.984;2022-10-30T05:27:19;25.40;;;13.50;;
69588;SDS011;56792;50.644;17.984;2022-10-30T05:29:51;22.80;;;12.60;;
69588;SDS011;56792;50.644;17.984;2022-10-30T05:32:23;24.70;;;12.60;;
69588;SDS011;56792;50.644;17.984;2022-10-30T05:34:57;23.60;;;12.00;;
69588;SDS011;56792;50.644;17.984;2022-10-30T05:37:29;24.90;;;11.90;;
69588;SDS011;56792;50.644;17.984;2022-10-30T05:40:02;22.30;;;12.40;;
69588;SDS011;56792;50.644;17.984;2022-10-30T05:42:35;25.20;;;12.90;;
69588;SDS011;56792;50.644;17.984;2022-10-30T05:45:09;23.30;;;12.50;;
69588;SDS011;56792;50.644;17.984;2022-10-30T05:47:41;25.90;;;12.60;;
69588;SDS011;56792;50.644;17.984;2022-10-30T05:50:13;26.10;;;14.50;;
69588;SDS011;56792;50.644;17.984;2022-10-30T05:52:57;26.10;;;13.10;;
69588;SDS011;56792;50.644;17.984;2022-10-30T05:55:30;24.50;;;12.40;;
69588;SDS011;56792;50.644;17.984;2022-10-30T05:58:11;22.80;;;11.80;;
69588;SDS011;56792;50.644;17.984;2022-10-30T06:00:44;24.70;;;13.20;;
69588;SDS011;56792;50.644;17.984;2022-10-30T06:03:18;24.60;;;12.70;;
69588;SDS011;56792;50.644;17.984;2022-10-30T06:05:50;25.40;;;14.40;;
69588;SDS011;56792;50.644;17.984;2022-10-30T06:08:22;23.00;;;12.70;;
69588;SDS011;56792;50.644;17.984;2022-10-30T06:11:00;24.90;;;13.00;;
69588;SDS011;56792;50.644;17.984;2022-10-30T06:13:54;22.40;;;12.20;;
69588;SDS011;56792;50.644;17.984;2022-10-30T06:16:40;23.60;;;12.30;;
69588;SDS011;56792;50.644;17.984;2022-10-30T06:19:22;24.80;;;11.90;;
69588;SDS011;56792;50.644;17.984;2022-10-30T06:21:55;25.50;;;13.30;;
69588;SDS011;56792;50.644;17.984;2022-10-30T06:24:36;28.80;;;13.00;;
69588;SDS011;56792;50.644;17.984;2022-10-30T06:27:28;25.40;;;13.00;;
69588;SDS011;56792;50.644;17.984;2022-10-30T06:30:05;23.20;;;13.50;;
69588;SDS011;56792;50.644;17.984;2022-10-30T06:32:38;26.90;;;13.50;;
69588;SDS011;56792;50.644;17.984;2022-10-30T06:35:11;27.40;;;14.40;;
69588;SDS011;56792;50.644;17.984;2022-10-30T06:37:47;28.80;;;15.70;;
69588;SDS011;56792;50.644;17.984;2022-10-30T06:40:21;23.80;;;12.80;;
69588;SDS011;56792;50.644;17.984;2022-10-30T06:43:23;19.60;;;11.10;;
69588;SDS011;56792;50.644;17.984;2022-10-30T06:46:00;24.80;;;14.20;;
69588;SDS011;56792;50.644;17.984;2022-10-30T06:48:33;34.60;;;18.70;;
69588;SDS011;56792;50.644;17.984;2022-10-30T06:51:06;36.20;;;20.70;;
69588;SDS011;56792;50.644;17.984;2022-10-30T06:53:40;37.30;;;17.30;;
69588;SDS011;56792;50.644;17.984;2022-10-30T06:56:31;28.50;;;15.70;;
69588;SDS011;56792;50.644;17.984;2022-10-30T06:59:22;25.00;;;13.80;;
69588;SDS011;56792;50.644;17.984;2022-10-30T07:01:58;24.90;;;13.80;;
69588;SDS011;56792;50.644;17.984;2022-10-30T07:04:39;26.40;;;12.50;;
69588;SDS011;56792;50.644;17.984;2022-10-30T07:07:13;25.80;;;13.10;;
69588;SDS011;56792;50.644;17.984;2022-10-30T07:09:46;25.20;;;13.60;;
69588;SDS011;56792;50.644;17.984;2022-10-30T07:12:21;25.80;;;13.90;;
69588;SDS011;56792;50.644;17.984;2022-10-30T07:15:12;26.20;;;13.20;;
69588;SDS011;56792;50.644;17.984;2022-10-30T07:18:06;28.20;;;15.50;;
69588;SDS011;56792;50.644;17.984;2022-10-30T07:20:39;29.90;;;15.90;;
69588;SDS011;56792;50.644;17.984;2022-10-30T07:23:11;32.80;;;15.90;;
69588;SDS011;56792;50.644;17.984;2022-10-30T07:25:43;34.50;;;16.70;;
69588;SDS011;56792;50.644;17.984;2022-10-30T07:28:32;27.40;;;16.10;;
69588;SDS011;56792;50.644;17.984;2022-10-30T07:31:36;27.20;;;16.10;;
69588;SDS011;56792;50.644;17.984;2022-10-30T07:34:26;27.30;;;15.90;;
69588;SDS011;56792;50.644;17.984;2022-10-30T07:37:17;29.00;;;15.10;;
69588;SDS011;56792;50.644;17.984;2022-10-30T07:39:58;28.20;;;17.60;;
69588;SDS011;56792;50.644;17.984;2022-10-30T07:42:49;71.90;;;52.60;;
69588;SDS011;56792;50.644;17.984;2022-10-30T07:46:02;64.70;;;50.80;;
69588;SDS011;56792;50.644;17.984;2022-10-30T07:49:04;63.50;;;46.40;;
69588;SDS011;56792;50.644;17.984;2022-10-30T07:51:44;42.30;;;29.40;;
69588;SDS011;56792;50.644;17.984;2022-10-30T07:54:17;30.00;;;18.30;;
69588;SDS011;56792;50.644;17.984;2022-10-30T07:56:50;28.00;;;16.10;;
69588;SDS011;56792;50.644;17.984;2022-10-30T07:59:37;23.70;;;14.20;;
69588;SDS011;56792;50.644;17.984;2022-10-30T08:02:28;24.30;;;13.30;;
69588;SDS011;56792;50.644;17.984;2022-10-30T08:05:17;24.60;;;13.70;;
69588;SDS011;56792;50.644;17.984;2022-10-30T08:08:21;25.80;;;14.60;;
69588;SDS011;56792;50.644;17.984;2022-10-30T08:11:03;24.30;;;13.40;;
69588;SDS011;56792;50.644;17.984;2022-10-30T08:13:35;21.70;;;12.20;;
69588;SDS011;56792;50.644;17.984;2022-10-30T08:16:08;23.20;;;12.40;;
69588;SDS011;56792;50.644;17.984;2022-10-30T08:18:42;25.90;;;12.90;;
69588;SDS011;56792;50.644;17.984;2022-10-30T08:21:15;22.00;;;12.80;;
69588;SDS011;56792;50.644;17.984;2022-10-30T08:23:56;23.30;;;12.20;;
69588;SDS011;56792;50.644;17.984;2022-10-30T08:26:30;20.60;;;11.40;;
69588;SDS011;56792;50.644;17.984;2022-10-30T08:29:03;21.50;;;11.00;;
69588;SDS011;56792;50.644;17.984;2022-10-30T08:31:36;22.80;;;13.30;;
69588;SDS011;56792;50.644;17.984;2022-10-30T08:34:26;19.90;;;11.00;;
69588;SDS011;56792;50.644;17.984;2022-10-30T08:37:05;20.40;;;10.60;;
69588;SDS011;56792;50.644;17.984;2022-10-30T08:39:39;16.20;;;10.10;;
69588;SDS011;56792;50.644;17.984;2022-10-30T08:42:41;19.40;;;10.00;;
69588;SDS011;56792;50.644;17.984;2022-10-30T08:45:21;15.40;;;9.10;;
69588;SDS011;56792;50.644;17.984;2022-10-30T08:48:11;20.50;;;9.70;;
69588;SDS011;56792;50.644;17.984;2022-10-30T08:50:46;20.00;;;11.10;;
69588;SDS011;56792;50.644;17.984;2022-10-30T08:53:28;21.20;;;10.40;;
69588;SDS011;56792;50.644;17.984;2022-10-30T08:56:08;20.60;;;10.10;;
69588;SDS011;56792;50.644;17.984;2022-10-30T08:59:01;15.80;;;8.20;;
69588;SDS011;56792;50.644;17.984;2022-10-30T09:01:37;14.60;;;9.20;;
69588;SDS011;56792;50.644;17.984;2022-10-30T09:04:22;11.90;;;6.50;;
69588;SDS011;56792;50.644;17.984;2022-10-30T09:07:24;15.50;;;8.50;;
69588;SDS011;56792;50.644;17.984;2022-10-30T09:10:21;20.20;;;8.20;;
69588;SDS011;56792;50.644;17.984;2022-10-30T09:12:56;16.50;;;8.60;;
69588;SDS011;56792;50.644;17.984;2022-10-30T09:15:30;16.20;;;8.00;;
69588;SDS011;56792;50.644;17.984;2022-10-30T09:18:03;12.80;;;7.70;;
69588;SDS011;56792;50.644;17.984;2022-10-30T09:20:36;14.20;;;7.80;;
69588;SDS011;56792;50.644;17.984;2022-10-30T09:23:11;14.70;;;8.20;;
69588;SDS011;56792;50.644;17.984;2022-10-30T09:25:46;16.60;;;7.60;;
69588;SDS011;56792;50.644;17.984;2022-10-30T09:28:35;16.20;;;8.70;;
69588;SDS011;56792;50.644;17.984;2022-10-30T09:31:31;15.10;;;7.80;;
69588;SDS011;56792;50.644;17.984;2022-10-30T09:34:05;13.60;;;7.40;;
69588;SDS011;56792;50.644;17.984;2022-10-30T09:36:42;14.70;;;7.30;;
69588;SDS011;56792;50.644;17.984;2022-10-30T09:39:16;15.80;;;8.40;;
69588;SDS011;56792;50.644;17.984;2022-10-30T09:42:04;14.00;;;7.10;;
69588;SDS011;56792;50.644;17.984;2022-10-30T09:45:22;13.80;;;7.30;;
69588;SDS011;56792;50.644;17.984;2022-10-30T09:48:13;11.40;;;7.10;;
69588;SDS011;56792;50.644;17.984;2022-10-30T09:51:23;13.30;;;7.00;;
69588;SDS011;56792;50.644;17.984;2022-10-30T09:54:13;13.30;;;6.50;;
69588;SDS011;56792;50.644;17.984;2022-10-30T09:57:00;11.20;;;6.70;;
69588;SDS011;56792;50.644;17.984;2022-10-30T09:59:47;10.40;;;6.90;;
69588;SDS011;56792;50.644;17.984;2022-10-30T10:02:34;12.80;;;6.90;;
69588;SDS011;56792;50.644;17.984;2022-10-30T10:05:14;14.60;;;8.10;;
69588;SDS011;56792;50.644;17.984;2022-10-30T10:08:13;13.00;;;7.00;;
69588;SDS011;56792;50.644;17.984;2022-10-30T10:11:11;12.40;;;7.20;;
69588;SDS011;56792;50.644;17.984;2022-10-30T10:13:49;10.30;;;6.50;;
69588;SDS011;56792;50.644;17.984;2022-10-30T10:16:29;10.10;;;6.30;;
69588;SDS011;56792;50.644;17.984;2022-10-30T10:19:11;13.00;;;6.30;;
69588;SDS011;56792;50.644;17.984;2022-10-30T10:21:50;10.20;;;6.60;;
69588;SDS011;56792;50.644;17.984;2022-10-30T10:24:27;12.00;;;7.50;;
69588;SDS011;56792;50.644;17.984;2022-10-30T10:27:07;10.50;;;7.30;;
69588;SDS011;56792;50.644;17.984;2022-10-30T10:29:51;11.70;;;7.10;;
69588;SDS011;56792;50.644;17.984;2022-10-30T10:32:55;9.90;;;6.70;;
69588;SDS011;56792;50.644;17.984;2022-10-30T10:36:14;11.70;;;8.20;;
69588;SDS011;56792;50.644;17.984;2022-10-30T10:39:00;13.50;;;7.80;;
69588;SDS011;56792;50.644;17.984;2022-10-30T10:41:54;11.10;;;7.30;;
69588;SDS011;56792;50.644;17.984;2022-10-30T10:44:44;9.20;;;6.30;;
69588;SDS011;56792;50.644;17.984;2022-10-30T10:47:45;12.50;;;6.90;;
69588;SDS011;56792;50.644;17.984;2022-10-30T10:50:32;11.60;;;6.60;;
69588;SDS011;56792;50.644;17.984;2022-10-30T10:53:17;14.20;;;6.90;;
69588;SDS011;56792;50.644;17.984;2022-10-30T10:55:56;10.40;;;6.80;;
69588;SDS011;56792;50.644;17.984;2022-10-30T10:58:33;13.10;;;6.80;;
69588;SDS011;56792;50.644;17.984;2022-10-30T11:01:16;9.80;;;7.10;;
69588;SDS011;56792;50.644;17.984;2022-10-30T11:03:59;10.20;;;7.30;;
69588;SDS011;56792;50.644;17.984;2022-10-30T11:06:36;11.10;;;6.50;;
69588;SDS011;56792;50.644;17.984;2022-10-30T11:09:15;11.00;;;6.70;;
69588;SDS011;56792;50.644;17.984;2022-10-30T11:11:50;10.40;;;6.60;;
69588;SDS011;56792;50.644;17.984;2022-10-30T11:14:26;13.90;;;8.90;;
69588;SDS011;56792;50.644;17.984;2022-10-30T11:17:09;12.90;;;7.30;;
69588;SDS011;56792;50.644;17.984;2022-10-30T11:19:50;10.10;;;6.30;;
69588;SDS011;56792;50.644;17.984;2022-10-30T11:22:36;11.20;;;7.10;;
69588;SDS011;56792;50.644;17.984;2022-10-30T11:25:24;9.70;;;6.20;;
69588;SDS011;56792;50.644;17.984;2022-10-30T11:28:04;20.50;;;15.40;;
69588;SDS011;56792;50.644;17.984;2022-10-30T11:31:18;21.20;;;12.40;;
69588;SDS011;56792;50.644;17.984;2022-10-30T11:33:56;16.10;;;9.60;;
69588;SDS011;56792;50.644;17.984;2022-10-30T11:36:30;11.70;;;7.80;;
69588;SDS011;56792;50.644;17.984;2022-10-30T11:39:15;14.70;;;8.70;;
69588;SDS011;56792;50.644;17.984;2022-10-30T11:41:57;12.80;;;6.60;;
69588;SDS011;56792;50.644;17.984;2022-10-30T11:44:36;19.60;;;7.80;;
69588;SDS011;56792;50.644;17.984;2022-10-30T11:47:13;11.30;;;6.20;;
69588;SDS011;56792;50.644;17.984;2022-10-30T11:49:52;10.70;;;7.10;;
69588;SDS011;56792;50.644;17.984;2022-10-30T11:52:27;12.90;;;5.90;;
69588;SDS011;56792;50.644;17.984;2022-10-30T11:55:13;11.60;;;6.00;;
69588;SDS011;56792;50.644;17.984;2022-10-30T11:57:50;11.60;;;6.80;;
69588;SDS011;56792;50.644;17.984;2022-10-30T12:00:26;13.40;;;8.90;;
69588;SDS011;56792;50.644;17.984;2022-10-30T12:03:01;13.30;;;8.30;;
69588;SDS011;56792;50.644;17.984;2022-10-30T12:05:39;7.70;;;5.10;;
69588;SDS011;56792;50.644;17.984;2022-10-30T12:08:21;15.20;;;9.50;;
69588;SDS011;56792;50.644;17.984;2022-10-30T12:11:00;9.40;;;5.40;;
69588;SDS011;56792;50.644;17.984;2022-10-30T12:13:38;12.00;;;6.60;;
69588;SDS011;56792;50.644;17.984;2022-10-30T12:16:17;14.00;;;11.40;;
69588;SDS011;56792;50.644;17.984;2022-10-30T12:18:57;10.40;;;5.70;;
69588;SDS011;56792;50.644;17.984;2022-10-30T12:21:36;9.10;;;5.50;;
69588;SDS011;56792;50.644;17.984;2022-10-30T12:24:18;7.20;;;5.10;;
69588;SDS011;56792;50.644;17.984;2022-10-30T12:27:01;6.60;;;4.60;;
69588;SDS011;56792;50.644;17.984;2022-10-30T12:29:41;17.90;;;9.40;;
69588;SDS011;56792;50.644;17.984;2022-10-30T12:32:31;10.20;;;7.20;;
69588;SDS011;56792;50.644;17.984;2022-10-30T12:35:17;10.40;;;5.70;;
69588;SDS011;56792;50.644;17.984;2022-10-30T12:38:01;11.40;;;6.60;;
69588;SDS011;56792;50.644;17.984;2022-10-30T12:40:40;11.00;;;6.40;;
69588;SDS011;56792;50.644;17.984;2022-10-30T12:43:20;13.20;;;7.40;;
69588;SDS011;56792;50.644;17.984;2022-10-30T12:46:00;12.20;;;6.30;;
69588;SDS011;56792;50.644;17.984;2022-10-30T12:48:49;12.30;;;5.30;;
69588;SDS011;56792;50.644;17.984;2022-10-30T12:51:26;11.80;;;5.10;;
69588;SDS011;56792;50.644;17.984;2022-10-30T12:54:11;9.90;;;6.00;;
69588;SDS011;56792;50.644;17.984;2022-10-30T12:56:54;9.70;;;6.40;;
69588;SDS011;56792;50.644;17.984;2022-10-30T12:59:37;10.80;;;6.60;;
69588;SDS011;56792;50.644;17.984;2022-10-30T13:02:35;12.90;;;6.70;;
69588;SDS011;56792;50.644;17.984;2022-10-30T13:05:27;8.80;;;5.70;;
69588;SDS011;56792;50.644;17.984;2022-10-30T13:08:11;8.50;;;5.40;;
69588;SDS011;56792;50.644;17.984;2022-10-30T13:10:51;8.90;;;5.50;;
69588;SDS011;56792;50.644;17.984;2022-10-30T13:13:33;11.30;;;6.50;;
69588;SDS011;56792;50.644;17.984;2022-10-30T13:16:14;7.50;;;5.00;;
69588;SDS011;56792;50.644;17.984;2022-10-30T13:18:54;11.30;;;6.50;;
69588;SDS011;56792;50.644;17.984;2022-10-30T13:21:33;14.10;;;7.10;;
69588;SDS011;56792;50.644;17.984;2022-10-30T13:24:11;11.10;;;8.00;;
69588;SDS011;56792;50.644;17.984;2022-10-30T13:26:49;8.70;;;5.40;;
69588;SDS011;56792;50.644;17.984;2022-10-30T13:29:30;10.50;;;5.40;;
69588;SDS011;56792;50.644;17.984;2022-10-30T13:32:30;9.30;;;5.40;;
69588;SDS011;56792;50.644;17.984;2022-10-30T13:35:24;9.70;;;5.70;;
69588;SDS011;56792;50.644;17.984;2022-10-30T13:38:15;12.60;;;5.90;;
69588;SDS011;56792;50.644;17.984;2022-10-30T13:41:05;11.20;;;6.80;;
69588;SDS011;56792;50.644;17.984;2022-10-30T13:43:55;9.20;;;5.80;;
69588;SDS011;56792;50.644;17.984;2022-10-30T13:46:54;10.50;;;5.50;;
69588;SDS011;56792;50.644;17.984;2022-10-30T13:50:01;13.60;;;8.00;;
69588;SDS011;56792;50.644;17.984;2022-10-30T13:52:55;23.90;;;15.20;;
69588;SDS011;56792;50.644;17.984;2022-10-30T13:55:33;23.00;;;14.30;;
69588;SDS011;56792;50.644;17.984;2022-10-30T13:58:13;21.00;;;13.80;;
69588;SDS011;56792;50.644;17.984;2022-10-30T14:01:01;13.20;;;7.20;;
69588;SDS011;56792;50.644;17.984;2022-10-30T14:03:47;15.50;;;10.00;;
69588;SDS011;56792;50.644;17.984;2022-10-30T14:06:38;15.70;;;8.20;;
69588;SDS011;56792;50.644;17.984;2022-10-30T14:09:23;13.90;;;6.40;;
69588;SDS011;56792;50.644;17.984;2022-10-30T14:12:01;13.50;;;6.80;;
69588;SDS011;56792;50.644;17.984;2022-10-30T14:15:54;13.10;;;6.60;;
69588;SDS011;56792;50.644;17.984;2022-10-30T14:18:44;11.60;;;7.10;;
69588;SDS011;56792;50.644;17.984;2022-10-30T14:21:37;18.10;;;12.60;;
69588;SDS011;56792;50.644;17.984;2022-10-30T14:24:18;14.20;;;7.70;;
69588;SDS011;56792;50.644;17.984;2022-10-30T14:27:07;16.90;;;10.60;;
69588;SDS011;56792;50.644;17.984;2022-10-30T14:29:46;29.50;;;18.50;;
69588;SDS011;56792;50.644;17.984;2022-10-30T14:32:48;23.20;;;15.10;;
69588;SDS011;56792;50.644;17.984;2022-10-30T14:35:38;21.70;;;15.20;;
69588;SDS011;56792;50.644;17.984;2022-10-30T14:38:26;23.50;;;13.40;;
69588;SDS011;56792;50.644;17.984;2022-10-30T14:41:18;19.20;;;10.90;;
69588;SDS011;56792;50.644;17.984;2022-10-30T14:44:21;22.20;;;15.60;;
69588;SDS011;56792;50.644;17.984;2022-10-30T14:47:14;16.10;;;10.80;;
69588;SDS011;56792;50.644;17.984;2022-10-30T14:50:16;15.00;;;9.30;;
69588;SDS011;56792;50.644;17.984;2022-10-30T14:53:13;19.90;;;12.80;;
69588;SDS011;56792;50.644;17.984;2022-10-30T14:55:59;16.70;;;10.20;;
69588;SDS011;56792;50.644;17.984;2022-10-30T14:58:38;20.70;;;11.30;;
69588;SDS011;56792;50.644;17.984;2022-10-30T15:01:25;18.70;;;11.30;;
69588;SDS011;56792;50.644;17.984;2022-10-30T15:04:13;14.00;;;8.10;;
69588;SDS011;56792;50.644;17.984;2022-10-30T15:07:00;13.90;;;7.10;;
69588;SDS011;56792;50.644;17.984;2022-10-30T15:09:58;23.50;;;13.70;;
69588;SDS011;56792;50.644;17.984;2022-10-30T15:13:10;13.30;;;8.30;;
69588;SDS011;56792;50.644;17.984;2022-10-30T15:15:57;25.10;;;15.50;;
69588;SDS011;56792;50.644;17.984;2022-10-30T15:18:32;22.40;;;13.10;;
69588;SDS011;56792;50.644;17.984;2022-10-30T15:21:10;18.80;;;10.60;;
69588;SDS011;56792;50.644;17.984;2022-10-30T15:23:50;16.80;;;9.50;;
69588;SDS011;56792;50.644;17.984;2022-10-30T15:26:33;22.90;;;13.70;;
69588;SDS011;56792;50.644;17.984;2022-10-30T15:29:17;84.40;;;47.50;;
69588;SDS011;56792;50.644;17.984;2022-10-30T15:32:02;75.60;;;43.20;;